Time;durP1;ratioP1;P1;durP2;ratioP2;P2;SDS_P1;SDS_P2;PMS_P1;PMS_P2;Temp;Humidity;BMP_temperature;BMP_pressure;BME280_temperature;BME280_humidity;BME280_pressure;Samples;Min_cycle;Max_cycle;Signal;HPM_P1;HPM_P2
2023/08/02 00:01:58;;;;;;;8.63;3.25;;;14.70;99.90;;;;;;5033196;28;20426;-75
2023/08/02 00:04:24;;;;;;;7.18;3.20;;;14.80;99.90;;;;;;5037697;28;20445;-75
2023/08/02 00:06:50;;;;;;;5.72;3.38;;;14.70;99.90;;;;;;5034705;28;20033;-74
2023/08/02 00:09:15;;;;;;;7.60;3.45;;;14.70;99.90;;;;;;5026312;28;20029;-75
2023/08/02 00:11:41;;;;;;;8.27;3.38;;;14.70;99.90;;;;;;5056311;28;20037;-75
2023/08/02 00:14:06;;;;;;;9.05;3.50;;;14.70;99.90;;;;;;5040433;28;20064;-76
2023/08/02 00:16:33;;;;;;;8.05;3.78;;;14.70;99.90;;;;;;5042738;28;20442;-75
2023/08/02 00:18:59;;;;;;;11.95;4.18;;;14.60;99.90;;;;;;5037357;28;20493;-75
2023/08/02 00:21:24;;;;;;;6.63;4.18;;;14.80;99.90;;;;;;5033283;28;20052;-75
2023/08/02 00:23:50;;;;;;;7.30;4.05;;;14.70;99.90;;;;;;5029418;28;20044;-75
2023/08/02 00:26:15;;;;;;;9.73;4.30;;;14.60;99.90;;;;;;5036934;28;20041;-75
2023/08/02 00:28:41;;;;;;;8.32;4.13;;;14.70;99.90;;;;;;5037249;28;20041;-71
2023/08/02 00:31:07;;;;;;;9.48;4.40;;;14.60;99.90;;;;;;5049420;28;20098;-75
2023/08/02 00:33:32;;;;;;;5.72;3.90;;;14.70;99.90;;;;;;5045749;28;20041;-75
2023/08/02 00:35:58;;;;;;;9.35;4.45;;;14.60;99.90;;;;;;5050848;28;20051;-75
2023/08/02 00:38:23;;;;;;;8.23;4.55;;;14.60;99.90;;;;;;5055896;28;20155;-77
2023/08/02 00:40:49;;;;;;;7.70;4.22;;;14.70;99.90;;;;;;5056985;28;20173;-72
2023/08/02 00:43:14;;;;;;;10.45;5.07;;;14.60;99.90;;;;;;5058393;28;20075;-76
2023/08/02 00:45:40;;;;;;;8.02;4.93;;;14.70;99.90;;;;;;5030235;28;20037;-74
2023/08/02 00:48:06;;;;;;;10.05;4.55;;;14.70;99.90;;;;;;5042100;28;20048;-75
2023/08/02 00:50:34;;;;;;;9.25;4.63;;;14.60;99.90;;;;;;5037219;28;20065;-75
2023/08/02 00:53:00;;;;;;;11.65;4.60;;;14.70;99.90;;;;;;5033950;28;20045;-73
2023/08/02 00:55:27;;;;;;;11.75;4.82;;;14.60;99.90;;;;;;5026818;28;20063;-75
2023/08/02 00:57:52;;;;;;;9.57;4.53;;;14.60;99.90;;;;;;5024129;28;22198;-75
2023/08/02 01:00:18;;;;;;;11.20;5.03;;;14.60;99.90;;;;;;5021045;28;20065;-71
2023/08/02 01:02:44;;;;;;;9.43;5.20;;;14.70;99.90;;;;;;5042017;28;20056;-76
2023/08/02 01:05:09;;;;;;;7.90;4.80;;;14.60;99.90;;;;;;5037636;28;20045;-75
2023/08/02 01:07:58;;;;;;;13.73;4.82;;;14.50;99.90;;;;;;5033401;28;20087;-76
2023/08/02 01:10:36;;;;;;;13.20;4.90;;;14.70;99.90;;;;;;5025374;28;20055;-75
2023/08/02 01:13:05;;;;;;;8.13;4.55;;;14.60;99.90;;;;;;5045323;28;20159;-74
2023/08/02 01:15:33;;;;;;;11.40;5.00;;;14.60;99.90;;;;;;5036267;28;20067;-75
2023/08/02 01:18:00;;;;;;;10.70;5.53;;;14.60;99.90;;;;;;5045970;28;20464;-71
2023/08/02 01:20:25;;;;;;;10.20;5.20;;;14.60;99.90;;;;;;5042270;28;20060;-73
2023/08/02 01:22:51;;;;;;;11.95;4.40;;;14.60;99.90;;;;;;5028670;28;20072;-73
2023/08/02 01:25:20;;;;;;;7.88;4.57;;;14.70;99.90;;;;;;5032966;28;20144;-75
2023/08/02 01:27:56;;;;;;;9.35;4.43;;;14.60;99.90;;;;;;5048040;28;20064;-75
2023/08/02 01:30:25;;;;;;;9.82;4.13;;;14.60;99.90;;;;;;5037836;28;20116;-75
2023/08/02 01:32:51;;;;;;;10.35;5.15;;;14.60;99.90;;;;;;5037826;28;20056;-75
2023/08/02 01:35:17;;;;;;;9.25;4.55;;;14.60;99.90;;;;;;5015727;28;20125;-76
2023/08/02 01:37:43;;;;;;;10.57;4.63;;;14.60;99.90;;;;;;5039528;28;20373;-74
2023/08/02 01:40:10;;;;;;;12.40;5.15;;;14.60;99.90;;;;;;5035274;28;20167;-74
2023/08/02 01:42:36;;;;;;;10.30;4.82;;;14.60;99.90;;;;;;5038460;28;20449;-71
2023/08/02 01:45:01;;;;;;;11.82;5.18;;;14.50;99.90;;;;;;5018711;28;20052;-74
2023/08/02 01:47:27;;;;;;;10.07;4.65;;;14.60;99.90;;;;;;5038272;28;20111;-76
2023/08/02 01:49:52;;;;;;;11.18;4.65;;;14.50;99.90;;;;;;5037795;28;20526;-75
2023/08/02 01:52:18;;;;;;;11.10;5.00;;;14.50;99.90;;;;;;5029633;28;20053;-77
2023/08/02 01:54:43;;;;;;;11.10;4.78;;;14.60;99.90;;;;;;5036995;28;20084;-75
2023/08/02 01:57:09;;;;;;;9.57;4.90;;;14.60;99.90;;;;;;5050114;28;20053;-75
2023/08/02 01:59:35;;;;;;;11.63;5.00;;;14.60;99.90;;;;;;5035123;28;20467;-74
2023/08/02 02:02:01;;;;;;;15.15;5.40;;;14.50;99.90;;;;;;5024212;28;20761;-76
2023/08/02 02:04:26;;;;;;;11.43;4.50;;;14.50;99.90;;;;;;5028769;28;20067;-76
2023/08/02 02:06:52;;;;;;;10.68;4.85;;;14.60;99.90;;;;;;5026722;28;20029;-74
2023/08/02 02:09:18;;;;;;;11.38;5.55;;;14.50;99.90;;;;;;5025758;28;20045;-75
2023/08/02 02:11:44;;;;;;;10.18;5.13;;;14.50;99.90;;;;;;5041162;28;20037;-77
2023/08/02 02:14:09;;;;;;;13.75;5.13;;;14.50;99.90;;;;;;5054578;28;20025;-75
2023/08/02 02:16:35;;;;;;;12.02;5.10;;;14.50;99.90;;;;;;5019555;28;20076;-76
2023/08/02 02:19:00;;;;;;;12.48;5.47;;;14.50;99.90;;;;;;5030080;28;20056;-72
2023/08/02 02:21:26;;;;;;;14.45;5.07;;;14.50;99.90;;;;;;5030880;28;20049;-74
2023/08/02 02:23:52;;;;;;;14.35;5.35;;;14.50;99.90;;;;;;5029466;28;20041;-74
2023/08/02 02:26:17;;;;;;;15.32;5.38;;;14.50;99.90;;;;;;5028644;28;20033;-74
2023/08/02 02:28:43;;;;;;;11.75;5.40;;;14.50;99.90;;;;;;5044191;28;20048;-71
2023/08/02 02:31:08;;;;;;;12.00;4.78;;;14.50;99.90;;;;;;5027087;28;20128;-75
2023/08/02 02:33:34;;;;;;;11.77;4.85;;;14.50;99.90;;;;;;5026737;28;20069;-75
2023/08/02 02:35:59;;;;;;;11.65;5.05;;;14.50;99.90;;;;;;5022193;28;20044;-72
2023/08/02 02:38:25;;;;;;;14.15;5.00;;;14.50;99.90;;;;;;5043657;28;20163;-76
2023/08/02 02:40:50;;;;;;;13.27;5.13;;;14.50;99.90;;;;;;5033284;28;20042;-75
2023/08/02 02:43:16;;;;;;;13.32;5.80;;;14.40;99.90;;;;;;5030039;28;20041;-72
2023/08/02 02:45:41;;;;;;;11.57;5.03;;;14.40;99.90;;;;;;5033005;28;20125;-75
2023/08/02 02:48:07;;;;;;;15.07;5.50;;;14.50;99.90;;;;;;5033030;28;20437;-71
2023/08/02 02:50:32;;;;;;;18.45;6.82;;;14.50;99.90;;;;;;5043297;28;20501;-74
2023/08/02 02:52:58;;;;;;;16.45;5.70;;;14.50;99.90;;;;;;5040823;28;20049;-76
2023/08/02 02:55:24;;;;;;;18.10;5.60;;;14.50;99.90;;;;;;5034968;28;20218;-72
2023/08/02 02:57:50;;;;;;;18.05;5.88;;;14.50;99.90;;;;;;5049601;28;20037;-74
2023/08/02 03:00:16;;;;;;;17.17;5.35;;;14.50;99.90;;;;;;5057222;28;20075;-75
2023/08/02 03:02:42;;;;;;;12.30;5.28;;;14.50;99.90;;;;;;5053546;28;20061;-74
2023/08/02 03:05:08;;;;;;;16.90;5.93;;;14.50;99.90;;;;;;5044453;28;20055;-74
2023/08/02 03:07:33;;;;;;;13.88;5.85;;;14.50;99.90;;;;;;5042984;28;20120;-74
2023/08/02 03:09:59;;;;;;;17.60;5.93;;;14.50;99.90;;;;;;5043343;28;20083;-72
2023/08/02 03:12:24;;;;;;;13.93;4.72;;;14.40;99.90;;;;;;5036067;28;20129;-73
2023/08/02 03:14:50;;;;;;;16.27;6.18;;;14.40;99.90;;;;;;5044280;28;20044;-74
2023/08/02 03:17:16;;;;;;;13.57;6.15;;;14.40;99.90;;;;;;5032016;28;20064;-73
2023/08/02 03:19:41;;;;;;;19.33;6.05;;;14.40;99.90;;;;;;5025047;28;20029;-75
2023/08/02 03:22:07;;;;;;;17.65;6.07;;;14.40;99.90;;;;;;5039077;28;20351;-75
2023/08/02 03:24:32;;;;;;;16.50;6.00;;;14.40;99.90;;;;;;5032735;28;20378;-74
2023/08/02 03:26:58;;;;;;;13.55;6.45;;;14.40;99.90;;;;;;5014769;28;20060;-73
2023/08/02 03:29:24;;;;;;;13.90;6.13;;;14.40;99.90;;;;;;5037014;28;20045;-74
2023/08/02 03:31:50;;;;;;;15.88;5.72;;;14.40;99.90;;;;;;5034934;28;20516;-75
2023/08/02 03:34:15;;;;;;;16.20;6.03;;;14.40;99.90;;;;;;5023275;28;20468;-75
2023/08/02 03:36:43;;;;;;;19.75;5.90;;;14.40;99.90;;;;;;5043332;28;20162;-73
2023/08/02 03:39:10;;;;;;;18.08;6.30;;;14.40;99.90;;;;;;5056039;28;20387;-74
2023/08/02 03:41:36;;;;;;;16.60;6.07;;;14.30;99.90;;;;;;5052526;28;20034;-69
2023/08/02 03:44:01;;;;;;;14.88;5.78;;;14.30;99.90;;;;;;5040422;28;20064;-75
2023/08/02 03:46:27;;;;;;;13.95;5.47;;;14.30;99.90;;;;;;5037393;28;20151;-75
2023/08/02 03:48:52;;;;;;;16.35;6.22;;;14.30;99.90;;;;;;5036314;28;20048;-70
2023/08/02 03:51:18;;;;;;;20.85;6.13;;;14.30;99.90;;;;;;5024003;28;20140;-76
2023/08/02 03:53:43;;;;;;;16.90;6.47;;;14.30;99.90;;;;;;5027902;28;20436;-73
2023/08/02 03:56:09;;;;;;;13.32;5.68;;;14.20;99.90;;;;;;5035522;28;20071;-74
2023/08/02 03:58:34;;;;;;;13.93;5.80;;;14.20;99.90;;;;;;5035301;28;20105;-75
2023/08/02 04:01:00;;;;;;;18.45;7.18;;;14.20;99.90;;;;;;5042328;28;20041;-74
2023/08/02 04:03:26;;;;;;;17.70;6.43;;;14.20;99.90;;;;;;5044106;28;20087;-72
2023/08/02 04:05:51;;;;;;;16.63;6.38;;;14.20;99.90;;;;;;5046164;28;20135;-70
2023/08/02 04:08:17;;;;;;;16.30;6.78;;;14.10;99.90;;;;;;5029277;28;20048;-75
2023/08/02 04:10:42;;;;;;;18.50;6.90;;;14.10;99.90;;;;;;5020085;28;20073;-73
2023/08/02 04:13:08;;;;;;;18.70;7.32;;;14.10;99.90;;;;;;5046192;28;20065;-73
2023/08/02 04:15:34;;;;;;;13.40;6.20;;;14.10;99.90;;;;;;5034845;28;20064;-72
2023/08/02 04:18:01;;;;;;;12.23;5.90;;;14.10;99.90;;;;;;5050035;28;20044;-73
2023/08/02 04:20:26;;;;;;;13.77;5.68;;;14.10;99.90;;;;;;5037853;28;20182;-71
2023/08/02 04:22:52;;;;;;;12.90;5.60;;;14.10;99.90;;;;;;5033102;28;20520;-71
2023/08/02 04:25:17;;;;;;;15.90;6.35;;;14.10;99.90;;;;;;5026164;28;20138;-73
2023/08/02 04:27:43;;;;;;;13.25;5.78;;;14.00;99.90;;;;;;5031675;28;20222;-76
2023/08/02 04:30:09;;;;;;;13.70;6.00;;;14.00;99.90;;;;;;5049587;28;20041;-75
2023/08/02 04:32:35;;;;;;;12.93;5.65;;;14.00;99.90;;;;;;5029638;28;20052;-73
2023/08/02 04:35:00;;;;;;;17.90;5.93;;;14.00;99.90;;;;;;5028886;28;20049;-71
2023/08/02 04:37:28;;;;;;;20.13;6.72;;;14.00;99.90;;;;;;5014503;28;20527;-75
2023/08/02 04:39:54;;;;;;;19.92;7.00;;;13.90;99.90;;;;;;5038855;28;20037;-72
2023/08/02 04:42:19;;;;;;;17.15;6.53;;;13.90;99.90;;;;;;5042318;28;20048;-68
2023/08/02 04:44:45;;;;;;;15.15;6.50;;;13.90;99.90;;;;;;5041400;28;20048;-72
2023/08/02 04:47:11;;;;;;;14.48;5.53;;;13.90;99.90;;;;;;5044142;28;20041;-74
2023/08/02 04:49:36;;;;;;;13.30;6.07;;;14.00;99.90;;;;;;5034425;28;20048;-71
2023/08/02 04:52:02;;;;;;;13.45;6.53;;;14.00;99.90;;;;;;5036757;28;20063;-72
2023/08/02 04:54:28;;;;;;;12.73;6.65;;;14.00;99.90;;;;;;5044885;28;20053;-74
2023/08/02 04:56:53;;;;;;;16.80;6.47;;;14.00;99.90;;;;;;5039243;28;20472;-74
2023/08/02 04:59:19;;;;;;;16.30;6.32;;;14.00;99.90;;;;;;5051735;28;20040;-74
2023/08/02 05:01:44;;;;;;;16.27;6.10;;;14.00;99.90;;;;;;5041969;28;20040;-71
2023/08/02 05:04:10;;;;;;;12.77;6.25;;;14.00;99.90;;;;;;5029787;28;20141;-73
2023/08/02 05:06:35;;;;;;;16.10;6.28;;;14.10;99.90;;;;;;5042618;28;20426;-72
2023/08/02 05:09:04;;;;;;;11.93;6.18;;;14.00;99.90;;;;;;5038992;28;20045;-70
2023/08/02 05:11:30;;;;;;;11.75;6.10;;;14.10;99.90;;;;;;5037722;28;20306;-71
2023/08/02 05:13:55;;;;;;;11.82;6.18;;;14.00;99.90;;;;;;5045208;28;20052;-68
2023/08/02 05:16:21;;;;;;;11.70;6.22;;;14.00;99.90;;;;;;5032043;28;20039;-71
2023/08/02 05:18:47;;;;;;;15.32;6.18;;;14.10;99.90;;;;;;5040566;28;20063;-70
2023/08/02 05:21:14;;;;;;;11.93;6.13;;;14.00;99.90;;;;;;5045913;28;20032;-71
2023/08/02 05:23:40;;;;;;;14.52;6.50;;;14.00;99.90;;;;;;5031993;28;20055;-70
2023/08/02 05:26:06;;;;;;;13.95;6.40;;;14.00;99.90;;;;;;5035123;28;20041;-71
2023/08/02 05:28:32;;;;;;;13.70;6.32;;;14.10;99.90;;;;;;5032829;28;20121;-72
2023/08/02 05:30:58;;;;;;;14.80;7.03;;;14.10;99.90;;;;;;5033308;28;20115;-71
2023/08/02 05:33:23;;;;;;;19.15;7.93;;;14.20;99.90;;;;;;5030769;28;20565;-70
2023/08/02 05:35:49;;;;;;;14.13;6.82;;;14.30;99.90;;;;;;5035097;28;20041;-71
2023/08/02 05:38:15;;;;;;;9.77;5.57;;;14.30;99.90;;;;;;5034465;28;20040;-72
2023/08/02 05:40:40;;;;;;;14.43;6.57;;;14.30;99.90;;;;;;5036978;28;20099;-68
2023/08/02 05:43:06;;;;;;;15.48;6.43;;;14.30;99.90;;;;;;5043495;28;20029;-72
2023/08/02 05:45:32;;;;;;;14.07;6.10;;;14.30;99.90;;;;;;5024443;28;20749;-69
2023/08/02 05:47:58;;;;;;;12.65;5.90;;;14.30;99.90;;;;;;5038727;28;20041;-68
2023/08/02 05:50:23;;;;;;;10.23;5.90;;;14.40;99.90;;;;;;5029974;28;20075;-68
2023/08/02 05:52:49;;;;;;;14.57;6.93;;;14.50;99.90;;;;;;5045783;28;20053;-71
2023/08/02 05:55:15;;;;;;;17.55;6.85;;;14.50;99.90;;;;;;5042050;28;20044;-69
2023/08/02 05:57:42;;;;;;;13.50;6.38;;;14.80;99.90;;;;;;5034105;28;20045;-70
2023/08/02 06:00:08;;;;;;;12.50;5.93;;;15.00;99.90;;;;;;5047197;28;20044;-73
2023/08/02 06:02:35;;;;;;;11.35;6.18;;;15.20;99.90;;;;;;5037165;28;20041;-75
2023/08/02 06:05:00;;;;;;;11.23;6.50;;;15.30;99.90;;;;;;5042125;28;20044;-69
2023/08/02 06:07:26;;;;;;;11.25;5.35;;;15.50;99.90;;;;;;5046931;28;20115;-71
2023/08/02 06:09:51;;;;;;;8.48;5.00;;;15.60;99.90;;;;;;5041082;28;20068;-67
2023/08/02 06:12:17;;;;;;;12.70;5.55;;;15.60;99.90;;;;;;5037261;28;20088;-71
2023/08/02 06:14:42;;;;;;;10.98;4.70;;;15.40;99.90;;;;;;5039394;28;20045;-73
2023/08/02 06:17:08;;;;;;;10.13;4.90;;;15.60;99.90;;;;;;5041955;28;20037;-70
2023/08/02 06:19:34;;;;;;;9.43;4.38;;;15.50;99.90;;;;;;5042674;28;20654;-70
2023/08/02 06:21:59;;;;;;;12.05;5.03;;;15.50;99.90;;;;;;5040992;28;20465;-72
2023/08/02 06:24:25;;;;;;;11.32;4.80;;;15.60;99.90;;;;;;5040029;28;20037;-70
2023/08/02 06:26:50;;;;;;;13.75;4.72;;;15.60;99.90;;;;;;5038591;28;20825;-71
2023/08/02 06:29:16;;;;;;;9.07;5.20;;;15.70;99.90;;;;;;5042864;28;20385;-69
2023/08/02 06:31:41;;;;;;;13.38;4.93;;;15.70;99.90;;;;;;5040292;28;20457;-72
2023/08/02 06:34:07;;;;;;;9.82;4.47;;;15.70;99.90;;;;;;5033596;28;20491;-67
2023/08/02 06:36:33;;;;;;;10.70;4.63;;;15.70;99.90;;;;;;5052736;28;20442;-71
2023/08/02 06:38:58;;;;;;;9.93;4.50;;;15.70;99.90;;;;;;5026659;28;20039;-68
2023/08/02 06:41:24;;;;;;;8.55;4.25;;;15.70;99.90;;;;;;5025932;28;20389;-68
2023/08/02 06:43:50;;;;;;;10.90;4.60;;;15.80;99.90;;;;;;5050863;28;20559;-71
2023/08/02 06:46:15;;;;;;;10.10;4.55;;;16.00;99.90;;;;;;5050095;28;20046;-70
2023/08/02 06:48:41;;;;;;;10.35;4.30;;;16.10;99.90;;;;;;5042732;28;20528;-69
2023/08/02 06:51:11;;;;;;;10.27;4.03;;;16.10;99.90;;;;;;5038741;28;20633;-71
2023/08/02 06:53:37;;;;;;;;;;;16.10;99.90;;;;;;5051758;28;20097;-68
2023/08/02 06:56:14;;;;;;;6.47;4.05;;;16.10;99.90;;;;;;5046662;28;20369;-70
2023/08/02 06:58:40;;;;;;;8.48;4.10;;;16.10;99.90;;;;;;5044733;28;20035;-68
2023/08/02 07:01:22;;;;;;;14.18;4.53;;;16.10;99.90;;;;;;5045128;28;20044;-69
2023/08/02 07:03:49;;;;;;;7.20;3.50;;;16.10;99.90;;;;;;5039309;28;20043;-71
2023/08/02 07:06:19;;;;;;;11.77;4.13;;;16.00;99.90;;;;;;5031123;28;20060;-70
2023/08/02 07:08:45;;;;;;;14.40;4.43;;;16.00;99.90;;;;;;5045768;28;20597;-71
2023/08/02 07:11:11;;;;;;;10.55;3.40;;;16.00;99.90;;;;;;5030601;28;20439;-73
2023/08/02 07:13:37;;;;;;;10.27;3.58;;;16.00;99.90;;;;;;5039416;28;20048;-71
2023/08/02 07:16:04;;;;;;;8.95;3.17;;;15.90;99.90;;;;;;5031716;28;20033;-71
2023/08/02 07:18:30;;;;;;;9.07;3.30;;;15.90;99.90;;;;;;5033066;28;20049;-72
2023/08/02 07:20:56;;;;;;;6.97;3.30;;;15.80;99.90;;;;;;5030420;28;20078;-70
2023/08/02 07:23:22;;;;;;;12.13;3.63;;;15.70;99.90;;;;;;5044653;28;20041;-69
2023/08/02 07:25:48;;;;;;;11.35;3.65;;;15.70;99.90;;;;;;5047978;28;20384;-73
2023/08/02 07:28:14;;;;;;;8.65;3.67;;;15.70;99.90;;;;;;5043455;28;20125;-71
2023/08/02 07:30:39;;;;;;;6.50;3.28;;;15.70;99.90;;;;;;5029971;28;20167;-68
2023/08/02 07:33:05;;;;;;;7.80;3.42;;;15.60;99.90;;;;;;5032163;28;20084;-69
2023/08/02 07:35:35;;;;;;;7.63;2.75;;;15.70;99.90;;;;;;5047163;28;20128;-69
2023/08/02 07:38:00;;;;;;;7.90;3.17;;;15.70;99.90;;;;;;5053622;28;20083;-68
2023/08/02 07:40:26;;;;;;;10.15;3.78;;;15.80;99.90;;;;;;5048681;28;20064;-70
2023/08/02 07:42:51;;;;;;;9.52;3.60;;;15.80;99.90;;;;;;5052469;28;20041;-68
2023/08/02 07:45:17;;;;;;;7.28;2.75;;;15.90;99.90;;;;;;5044784;28;20044;-70
2023/08/02 07:47:43;;;;;;;9.30;3.50;;;15.90;99.90;;;;;;5047245;28;20033;-71
2023/08/02 07:50:09;;;;;;;5.05;2.72;;;16.00;99.90;;;;;;5044028;28;20515;-69
2023/08/02 07:52:35;;;;;;;8.02;3.28;;;16.00;99.90;;;;;;5050666;28;20045;-71
2023/08/02 07:55:00;;;;;;;10.52;3.70;;;16.10;99.90;;;;;;5048799;28;20121;-68
2023/08/02 07:57:30;;;;;;;7.93;3.30;;;16.00;99.90;;;;;;5064211;28;20150;-70
2023/08/02 07:59:57;;;;;;;8.60;4.30;;;16.00;99.90;;;;;;5036254;28;20072;-67
2023/08/02 08:02:23;;;;;;;11.50;4.00;;;15.80;99.90;;;;;;5041701;28;20041;-68
2023/08/02 08:04:48;;;;;;;15.23;4.30;;;15.60;99.90;;;;;;5058040;28;20036;-69
2023/08/02 08:07:14;;;;;;;11.60;4.03;;;15.50;99.90;;;;;;5048557;28;20137;-71
2023/08/02 08:09:39;;;;;;;9.68;4.38;;;15.30;99.90;;;;;;5033865;28;20052;-70
2023/08/02 08:12:06;;;;;;;7.85;3.83;;;15.20;99.90;;;;;;5032639;28;20052;-68
2023/08/02 08:14:32;;;;;;;11.35;3.85;;;15.10;99.90;;;;;;5050548;28;20419;-68
2023/08/02 08:16:58;;;;;;;8.15;3.90;;;14.90;99.90;;;;;;5045660;28;20041;-70
2023/08/02 08:19:28;;;;;;;12.00;4.38;;;14.90;99.90;;;;;;5030666;28;20095;-72
2023/08/02 08:21:54;;;;;;;7.78;3.67;;;14.70;99.90;;;;;;5035264;28;20132;-70
2023/08/02 08:24:20;;;;;;;13.15;3.70;;;14.70;99.90;;;;;;5031020;28;20090;-70
2023/08/02 08:26:45;;;;;;;8.55;3.85;;;14.70;99.90;;;;;;5032914;28;20059;-72
2023/08/02 08:29:11;;;;;;;11.38;4.05;;;14.60;99.90;;;;;;5048288;28;20044;-70
2023/08/02 08:31:37;;;;;;;12.18;4.07;;;14.60;99.90;;;;;;5031882;28;20041;-72
2023/08/02 08:34:02;;;;;;;11.52;4.00;;;14.60;99.90;;;;;;5042732;28;20030;-73
2023/08/02 08:36:31;;;;;;;11.70;3.90;;;14.50;99.90;;;;;;5040930;28;20169;-75
2023/08/02 08:38:57;;;;;;;8.82;3.92;;;14.60;99.90;;;;;;5047556;28;20037;-75
2023/08/02 08:41:22;;;;;;;11.30;3.70;;;14.70;99.90;;;;;;5023795;28;20039;-69
2023/08/02 08:43:49;;;;;;;8.25;3.75;;;14.60;99.90;;;;;;5036072;28;20041;-75
2023/08/02 08:46:15;;;;;;;12.02;4.35;;;14.60;99.90;;;;;;5039991;28;20466;-78
2023/08/02 08:48:41;;;;;;;9.00;4.32;;;14.60;99.90;;;;;;5059545;28;20036;-74
2023/08/02 08:51:10;;;;;;;14.63;3.88;;;14.60;99.90;;;;;;5041133;28;20131;-74
2023/08/02 08:53:36;;;;;;;10.23;3.83;;;14.60;99.90;;;;;;5039376;28;20090;-79
2023/08/02 08:56:04;;;;;;;14.13;4.03;;;14.60;99.90;;;;;;5054803;28;20041;-79
2023/08/02 08:58:32;;;;;;;15.68;4.45;;;14.60;99.90;;;;;;5044442;28;20041;-75
2023/08/02 09:00:58;;;;;;;9.98;4.22;;;14.70;99.90;;;;;;5031219;28;20093;-70
2023/08/02 09:03:24;;;;;;;9.50;4.03;;;14.70;99.90;;;;;;5039803;28;20456;-72
2023/08/02 09:05:51;;;;;;;11.05;5.10;;;14.60;99.90;;;;;;5041664;28;20043;-75
2023/08/02 09:08:17;;;;;;;12.02;4.68;;;14.70;99.90;;;;;;5051642;28;20141;-74
2023/08/02 09:10:42;;;;;;;11.38;5.00;;;14.80;99.90;;;;;;5039661;28;20037;-77
2023/08/02 09:13:22;;;;;;;9.07;4.95;;;14.70;99.90;;;;;;5045654;28;20106;-74
2023/08/02 09:16:13;;;;;;;11.63;5.32;;;14.80;99.90;;;;;;5045601;28;20067;-82
2023/08/02 09:18:45;;;;;;;13.40;5.18;;;14.80;99.90;;;;;;5041518;28;20124;-80
2023/08/02 09:21:22;;;;;;;11.48;5.22;;;14.70;99.90;;;;;;5045683;28;20132;-75
2023/08/02 09:23:56;;;;;;;14.32;5.28;;;14.80;99.90;;;;;;5045317;28;20118;-73
2023/08/02 09:26:21;;;;;;;14.05;5.30;;;14.70;99.90;;;;;;5045113;28;20069;-72
2023/08/02 09:29:01;;;;;;;14.48;5.65;;;14.90;99.90;;;;;;5053752;28;20152;-75
2023/08/02 09:31:28;;;;;;;11.05;5.68;;;14.80;99.90;;;;;;5039509;28;20037;-71
2023/08/02 09:33:55;;;;;;;15.10;5.65;;;14.80;99.90;;;;;;5042567;28;20092;-71
2023/08/02 09:36:21;;;;;;;14.98;6.60;;;14.80;99.90;;;;;;5052459;28;20421;-71
2023/08/02 09:39:01;;;;;;;16.73;6.35;;;14.90;99.90;;;;;;5041881;28;20516;-70
2023/08/02 09:41:27;;;;;;;14.47;6.30;;;15.00;99.90;;;;;;5039994;28;20063;-70
2023/08/02 09:43:53;;;;;;;13.63;7.03;;;15.10;99.90;;;;;;5041233;28;20763;-70
2023/08/02 09:46:30;;;;;;;13.07;6.95;;;15.50;99.90;;;;;;5042817;28;20098;-71
2023/08/02 09:48:59;;;;;;;15.07;6.72;;;15.50;99.90;;;;;;5042327;28;20037;-74
2023/08/02 09:51:40;;;;;;;15.27;7.55;;;15.70;99.90;;;;;;5021147;28;20114;-73
2023/08/02 09:54:10;;;;;;;16.05;6.55;;;15.60;99.90;;;;;;5040355;28;20087;-74
2023/08/02 09:56:37;;;;;;;14.65;6.10;;;15.60;99.90;;;;;;5010330;28;20076;-72
2023/08/02 09:59:04;;;;;;;15.20;6.70;;;15.70;99.90;;;;;;5044100;28;20217;-75
2023/08/02 10:01:31;;;;;;;14.55;6.57;;;15.50;99.90;;;;;;5042574;28;20428;-73
2023/08/02 10:04:05;;;;;;;15.10;7.22;;;15.50;99.90;;;;;;5034110;28;20036;-76
2023/08/02 10:06:52;;;;;;;13.85;6.97;;;15.70;99.90;;;;;;5045267;28;20119;-67
2023/08/02 10:09:23;;;;;;;9.68;5.38;;;15.50;99.90;;;;;;5030654;28;20039;-71
2023/08/02 10:11:52;;;;;;;12.05;6.05;;;15.50;99.90;;;;;;5029228;28;20540;-69
2023/08/02 10:14:19;;;;;;;12.38;6.72;;;15.60;99.90;;;;;;5025780;28;20041;-73
2023/08/02 10:16:45;;;;;;;10.48;6.18;;;15.60;99.90;;;;;;5053332;28;20130;-70
2023/08/02 10:19:12;;;;;;;9.48;5.78;;;15.60;99.90;;;;;;5041055;28;20040;-70
2023/08/02 10:21:39;;;;;;;13.63;5.90;;;15.70;99.90;;;;;;5033661;28;20040;-69
2023/08/02 10:24:05;;;;;;;10.25;5.35;;;15.60;99.90;;;;;;5032076;28;20730;-68
2023/08/02 10:26:32;;;;;;;12.07;5.93;;;15.60;99.90;;;;;;5056171;28;20068;-67
2023/08/02 10:29:00;;;;;;;9.05;5.15;;;15.60;99.90;;;;;;5032914;28;20088;-69
2023/08/02 10:31:26;;;;;;;8.90;5.35;;;15.60;99.90;;;;;;5028042;28;20045;-67
2023/08/02 10:33:53;;;;;;;7.40;4.80;;;15.70;99.90;;;;;;5035151;28;20033;-68
2023/08/02 10:36:18;;;;;;;9.93;4.65;;;15.70;99.90;;;;;;5039706;28;20029;-67
2023/08/02 10:38:47;;;;;;;10.55;4.70;;;15.80;99.90;;;;;;5041848;28;20041;-66
2023/08/02 10:41:25;;;;;;;6.35;4.72;;;15.60;99.90;;;;;;5036401;28;20040;-66
2023/08/02 10:43:53;;;;;;;9.45;4.30;;;15.70;99.90;;;;;;5027277;28;20068;-67
2023/08/02 10:46:22;;;;;;;7.95;4.00;;;15.70;99.90;;;;;;5029747;28;20172;-66
2023/08/02 10:48:48;;;;;;;7.05;4.18;;;15.70;99.90;;;;;;5025878;28;20041;-66
2023/08/02 10:51:34;;;;;;;7.05;3.58;;;15.80;99.90;;;;;;5048625;28;20066;-66
2023/08/02 10:54:22;;;;;;;5.00;3.45;;;15.70;99.90;;;;;;5015578;28;20169;-67
2023/08/02 10:56:51;;;;;;;4.57;3.22;;;15.60;99.90;;;;;;5042971;28;20049;-66
2023/08/02 10:59:23;;;;;;;4.10;2.90;;;15.70;99.90;;;;;;5050707;28;20041;-67
2023/08/02 11:02:09;;;;;;;5.53;3.58;;;15.90;99.90;;;;;;5026149;28;20045;-66
2023/08/02 11:04:39;;;;;;;5.20;2.78;;;15.90;99.90;;;;;;5050374;28;20108;-66
2023/08/02 11:07:21;;;;;;;4.90;3.03;;;15.70;99.90;;;;;;5009187;28;20094;-66
2023/08/02 11:09:48;;;;;;;4.82;2.63;;;16.00;99.90;;;;;;5036087;28;20136;-67
2023/08/02 11:12:18;;;;;;;3.97;2.55;;;16.00;99.90;;;;;;5030275;28;20061;-69
2023/08/02 11:14:46;;;;;;;;;;;16.00;99.90;;;;;;5019851;28;20037;-67
2023/08/02 11:17:15;;;;;;;5.85;2.92;;;15.90;99.90;;;;;;5029392;28;20715;-68
2023/08/02 11:19:46;;;;;;;4.22;2.50;;;15.90;99.90;;;;;;5027993;28;20046;-65
2023/08/02 11:22:12;;;;;;;4.47;2.20;;;15.90;99.90;;;;;;5049627;28;20040;-69
2023/08/02 11:24:47;;;;;;;5.20;2.60;;;16.10;99.90;;;;;;5049558;28;20128;-65
2023/08/02 11:27:24;;;;;;;3.72;2.03;;;15.90;99.90;;;;;;5029921;28;20041;-68
2023/08/02 11:30:07;;;;;;;3.42;1.88;;;16.20;99.90;;;;;;5040934;28;20144;-65
2023/08/02 11:32:34;;;;;;;3.10;1.88;;;16.20;99.90;;;;;;5053514;28;20043;-67
2023/08/02 11:35:00;;;;;;;2.88;2.20;;;16.00;99.90;;;;;;5044001;28;20088;-68
2023/08/02 11:37:26;;;;;;;2.60;2.17;;;16.30;99.90;;;;;;5035028;28;20029;-67
2023/08/02 11:39:56;;;;;;;3.35;2.00;;;16.30;99.90;;;;;;5044668;28;20083;-66
2023/08/02 11:42:22;;;;;;;3.22;2.20;;;16.20;99.90;;;;;;5032916;28;20492;-66
2023/08/02 11:44:48;;;;;;;3.03;2.30;;;16.30;99.90;;;;;;5037890;28;20111;-64
2023/08/02 11:47:14;;;;;;;3.72;2.42;;;16.30;99.90;;;;;;5032039;28;20037;-67
2023/08/02 11:49:59;;;;;;;3.58;2.38;;;16.40;99.90;;;;;;5043419;28;20037;-67
2023/08/02 11:52:26;;;;;;;4.50;2.67;;;16.40;99.90;;;;;;5047433;28;20060;-66
2023/08/02 11:54:53;;;;;;;3.38;2.47;;;16.80;99.90;;;;;;5038439;28;20121;-68
2023/08/02 11:57:21;;;;;;;3.60;2.95;;;16.70;99.90;;;;;;5026000;28;20448;-68
2023/08/02 11:59:47;;;;;;;4.13;2.83;;;17.20;99.90;;;;;;5039464;28;20461;-67
2023/08/02 12:02:30;;;;;;;3.08;2.70;;;17.10;99.90;;;;;;5033305;28;20037;-67
2023/08/02 12:04:56;;;;;;;4.07;3.28;;;17.10;99.90;;;;;;5047976;28;20408;-67
2023/08/02 12:07:30;;;;;;;3.50;2.60;;;17.30;99.90;;;;;;5021029;28;20093;-67
2023/08/02 12:09:56;;;;;;;4.45;2.85;;;17.60;99.90;;;;;;5009204;28;20163;-66
2023/08/02 12:12:26;;;;;;;3.30;2.88;;;18.10;99.90;;;;;;5026050;28;20038;-66
2023/08/02 12:14:52;;;;;;;;;;;18.10;99.90;;;;;;5048939;28;20044;-65
2023/08/02 12:17:19;;;;;;;3.03;2.65;;;18.30;99.90;;;;;;5060258;28;19921;-66
2023/08/02 12:19:45;;;;;;;2.50;2.13;;;18.40;99.90;;;;;;5038775;28;20508;-66
2023/08/02 12:22:11;;;;;;;2.38;2.10;;;18.50;99.90;;;;;;5035306;28;20041;-65
2023/08/02 12:24:37;;;;;;;2.45;2.03;;;18.20;99.90;;;;;;5031831;28;20037;-66
2023/08/02 12:27:15;;;;;;;2.72;2.33;;;18.40;99.90;;;;;;5044368;28;20048;-64
2023/08/02 12:29:42;;;;;;;2.25;1.98;;;18.20;99.90;;;;;;5040653;28;20072;-66
2023/08/02 12:32:09;;;;;;;2.80;2.50;;;18.00;99.90;;;;;;5050869;28;20033;-65
2023/08/02 12:34:36;;;;;;;2.97;1.95;;;18.10;99.90;;;;;;5046668;28;20382;-66
2023/08/02 12:37:02;;;;;;;3.90;2.60;;;18.00;99.90;;;;;;5041244;28;20045;-65
2023/08/02 12:39:28;;;;;;;7.13;2.40;;;18.10;99.90;;;;;;5053407;28;20048;-65
2023/08/02 12:41:53;;;;;;;2.60;2.40;;;18.10;99.90;;;;;;5029644;28;20060;-66